Time;durP1;ratioP1;P1;durP2;ratioP2;P2;SDS_P1;SDS_P2;PMS_P1;PMS_P2;Temp;Humidity;BMP_temperature;BMP_pressure;BME280_temperature;BME280_humidity;BME280_pressure;Samples;Min_cycle;Max_cycle;Signal;HPM_P1;HPM_P2
2024/01/15 00:01:36;;;;;;;38.72;6.22;;;;;;;-5.68;100.00;100471.16;10252836;29;20142;-74
2024/01/15 00:06:37;;;;;;;12.88;5.35;;;;;;;-6.08;100.00;100426.22;10252202;29;20598;-75
2024/01/15 00:11:38;;;;;;;10.43;4.88;;;;;;;-5.83;100.00;100470.06;10252075;29;20142;-74
2024/01/15 00:16:41;;;;;;;10.25;4.95;;;;;;;-5.77;100.00;100465.47;10251550;29;20472;-74
2024/01/15 00:21:42;;;;;;;15.15;5.35;;;;;;;-5.69;100.00;100478.09;10252102;29;20058;-74
2024/01/15 00:26:43;;;;;;;12.43;4.85;;;;;;;-5.66;100.00;100465.00;10252193;29;20040;-74
2024/01/15 00:31:44;;;;;;;13.35;5.38;;;;;;;-5.87;100.00;100412.38;10250982;29;20411;-74
2024/01/15 00:36:44;;;;;;;25.85;5.53;;;;;;;-5.70;100.00;100442.75;10251093;29;20039;-74
2024/01/15 00:41:45;;;;;;;8.68;5.10;;;;;;;-6.08;100.00;100411.53;10251499;28;20070;-74
2024/01/15 00:46:46;;;;;;;18.05;5.65;;;;;;;-5.88;100.00;100456.44;10251974;29;20158;-74
2024/01/15 00:51:47;;;;;;;17.58;5.50;;;;;;;-5.83;100.00;100436.41;10251245;29;20186;-74
2024/01/15 00:56:48;;;;;;;55.63;6.82;;;;;;;-5.83;100.00;100429.50;10250572;29;20051;-74
2024/01/15 01:01:49;;;;;;;17.23;5.70;;;;;;;-5.83;100.00;100421.72;10251207;29;20039;-74
2024/01/15 01:06:49;;;;;;;15.02;4.53;;;;;;;-5.78;100.00;100437.06;10251076;29;20043;-74
2024/01/15 01:11:50;;;;;;;19.00;6.22;;;;;;;-5.87;100.00;100437.41;10251045;29;20039;-73
2024/01/15 01:16:51;;;;;;;17.48;5.32;;;;;;;-5.88;100.00;100428.00;10250897;29;20039;-73
2024/01/15 01:21:52;;;;;;;16.10;5.07;;;;;;;-5.98;100.00;100425.81;10250738;29;20134;-74
2024/01/15 01:26:52;;;;;;;44.13;6.22;;;;;;;-6.28;100.00;100370.13;10251106;29;20039;-73
2024/01/15 01:31:53;;;;;;;10.20;5.00;;;;;;;-6.04;100.00;100387.25;10250620;29;20504;-73
2024/01/15 01:36:54;;;;;;;15.38;5.32;;;;;;;-6.03;100.00;100365.66;10250503;29;20039;-77
2024/01/15 01:41:55;;;;;;;19.48;5.18;;;;;;;-5.93;100.00;100384.22;10246263;28;20063;-74
2024/01/15 01:46:57;;;;;;;26.90;5.85;;;;;;;-5.89;100.00;100379.72;10256936;29;20048;-73
2024/01/15 01:52:00;;;;;;;18.77;5.55;;;;;;;-6.09;100.00;100354.72;10256252;29;20079;-73
2024/01/15 01:57:03;;;;;;;14.68;5.88;;;;;;;-6.06;100.00;100370.13;10256718;29;20043;-73
2024/01/15 02:02:05;;;;;;;29.60;6.03;;;;;;;-5.95;100.00;100374.84;10256775;28;20043;-73
2024/01/15 02:07:06;;;;;;;31.80;6.00;;;;;;;-5.87;100.00;100377.94;10257403;29;20133;-72
2024/01/15 02:12:07;;;;;;;22.67;5.43;;;;;;;-5.90;100.00;100375.47;10256570;29;20103;-73
2024/01/15 02:17:08;;;;;;;15.32;6.30;;;;;;;-5.83;100.00;100356.22;10255794;28;20047;-74
2024/01/15 02:22:08;;;;;;;34.97;6.18;;;;;;;-5.82;100.00;100370.81;10256047;29;20414;-74
2024/01/15 02:27:09;;;;;;;16.90;6.13;;;;;;;-5.79;100.00;100375.88;10254319;29;20044;-74
2024/01/15 02:32:10;;;;;;;34.30;5.80;;;;;;;-5.71;100.00;100375.53;10255490;28;20416;-75
2024/01/15 02:37:11;;;;;;;24.27;5.47;;;;;;;-5.90;100.00;100352.19;10254405;28;20046;-74
2024/01/15 02:42:12;;;;;;;24.58;6.18;;;;;;;-5.67;100.00;100372.78;10254690;29;20514;-74
2024/01/15 02:47:14;;;;;;;13.70;5.85;;;;;;;-5.65;100.00;100395.97;10254692;28;20523;-74
2024/01/15 02:52:15;;;;;;;16.15;5.32;;;;;;;-5.82;100.00;100386.34;10254519;28;20039;-74
2024/01/15 02:57:16;;;;;;;13.00;5.30;;;;;;;-6.00;100.00;100396.56;10255769;28;20042;-74
2024/01/15 03:02:16;;;;;;;12.00;4.63;;;;;;;-6.44;100.00;100360.38;10254553;29;20046;-74
2024/01/15 03:07:18;;;;;;;11.40;5.18;;;;;;;-6.23;100.00;100405.22;10254072;29;20047;-74
2024/01/15 03:12:18;;;;;;;13.70;5.43;;;;;;;-6.21;100.00;100428.44;10254908;28;20496;-73
2024/01/15 03:17:19;;;;;;;32.03;6.25;;;;;;;-6.62;100.00;100347.34;10254075;28;20114;-74
2024/01/15 03:22:20;;;;;;;13.82;6.03;;;;;;;-6.28;100.00;100403.72;10244442;29;20047;-74
2024/01/15 03:27:21;;;;;;;16.10;5.80;;;;;;;-6.29;100.00;100391.69;10253652;28;20144;-76
2024/01/15 03:32:21;;;;;;;9.68;5.22;;;;;;;-6.32;100.00;100392.66;10247127;29;20133;-75
2024/01/15 03:37:22;;;;;;;16.25;4.80;;;;;;;-6.31;100.00;100381.44;10253054;28;20036;-74
2024/01/15 03:42:23;;;;;;;15.73;5.18;;;;;;;-6.33;100.00;100398.75;10252162;28;20067;-76
2024/01/15 03:47:24;;;;;;;13.90;5.10;;;;;;;-6.46;100.00;100389.75;10252511;29;20571;-81
2024/01/15 03:52:25;;;;;;;9.90;4.60;;;;;;;-6.31;100.00;100407.28;10253030;29;20134;-78
2024/01/15 03:57:26;;;;;;;14.65;5.70;;;;;;;-6.67;100.00;100352.66;10253448;29;20129;-75
2024/01/15 04:02:27;;;;;;;11.10;5.10;;;;;;;-6.38;100.00;100394.66;10251563;28;20178;-77
2024/01/15 04:07:28;;;;;;;10.35;5.53;;;;;;;-6.30;100.00;100402.97;10251692;29;20151;-76
2024/01/15 04:12:28;;;;;;;11.30;4.75;;;;;;;-6.54;100.00;100353.91;10250967;29;20043;-78
2024/01/15 04:17:29;;;;;;;17.45;5.43;;;;;;;-6.53;100.00;100380.56;10246994;29;20039;-74
2024/01/15 04:22:30;;;;;;;12.93;5.20;;;;;;;-6.73;100.00;100371.84;10251728;28;20055;-75
2024/01/15 04:27:31;;;;;;;10.02;5.28;;;;;;;-6.35;100.00;100428.13;10251854;28;20039;-81
2024/01/15 04:32:32;;;;;;;14.80;4.75;;;;;;;-6.34;100.00;100429.81;10251212;28;20423;-72
2024/01/15 04:37:32;;;;;;;9.45;4.20;;;;;;;-6.27;100.00;100444.19;10251824;28;20039;-74
2024/01/15 04:42:33;;;;;;;9.90;4.88;;;;;;;-6.25;100.00;100430.31;10241999;28;20151;-76
2024/01/15 04:47:36;;;;;;;8.88;4.70;;;;;;;-6.14;100.00;100426.47;10212531;29;20510;-77
2024/01/15 04:52:37;;;;;;;11.10;4.22;;;;;;;-6.11;100.00;100423.75;10210719;29;20057;-75
2024/01/15 04:57:38;;;;;;;10.70;4.43;;;;;;;-6.20;100.00;100406.84;10211247;29;20040;-76
2024/01/15 05:02:38;;;;;;;8.57;4.32;;;;;;;-6.15;100.00;100412.69;10211113;29;20150;-76
2024/01/15 05:07:39;;;;;;;8.52;4.78;;;;;;;-6.26;100.00;100404.50;10210041;29;20047;-76
2024/01/15 05:12:40;;;;;;;8.02;4.30;;;;;;;-6.21;100.00;100412.94;10210859;29;20580;-76
2024/01/15 05:17:41;;;;;;;10.57;4.72;;;;;;;-6.14;100.00;100413.53;10215596;29;20051;-76
2024/01/15 05:22:41;;;;;;;16.35;5.20;;;;;;;-6.06;100.00;100432.19;10218883;29;20488;-76
2024/01/15 05:27:42;;;;;;;15.43;4.65;;;;;;;-6.00;100.00;100440.53;10219042;29;20039;-77
2024/01/15 05:32:43;;;;;;;10.48;4.80;;;;;;;-5.90;100.00;100451.31;10217960;29;20051;-76
2024/01/15 05:37:45;;;;;;;9.20;4.68;;;;;;;-5.77;100.00;100447.34;10217684;29;20500;-76
2024/01/15 05:42:46;;;;;;;9.10;4.78;;;;;;;-5.76;100.00;100435.25;10217590;29;20090;-76
2024/01/15 05:47:47;;;;;;;15.30;5.68;;;;;;;-5.69;100.00;100459.13;10217708;29;20059;-76
2024/01/15 05:52:48;;;;;;;12.73;5.07;;;;;;;-5.74;100.00;100469.69;10217707;29;20044;-77
2024/01/15 05:57:49;;;;;;;16.88;5.80;;;;;;;-5.85;100.00;100488.19;10217138;29;20538;-76
2024/01/15 06:02:49;;;;;;;13.65;5.70;;;;;;;-5.62;100.00;100491.63;10217390;29;20079;-76
2024/01/15 06:07:50;;;;;;;10.95;5.85;;;;;;;-5.45;100.00;100480.56;10217730;29;20126;-76
2024/01/15 06:12:51;;;;;;;17.23;5.90;;;;;;;-5.41;100.00;100470.06;10217001;29;20064;-76
2024/01/15 06:17:52;;;;;;;12.38;5.95;;;;;;;-5.28;100.00;100497.09;10216294;29;20040;-77
2024/01/15 06:22:52;;;;;;;11.43;5.45;;;;;;;-5.02;100.00;100512.47;10216485;29;20416;-77
2024/01/15 06:28:11;;;;;;;19.00;5.72;;;;;;;-4.88;100.00;100502.34;10215908;28;20091;-77
2024/01/15 06:33:30;;;;;;;21.10;6.68;;;;;;;-4.82;100.00;100500.34;10216284;29;20047;-75
2024/01/15 06:38:31;;;;;;;34.10;6.30;;;;;;;-4.79;100.00;100509.72;10216107;29;20039;-76
2024/01/15 06:43:32;;;;;;;11.10;5.65;;;;;;;-4.71;100.00;100515.41;10216574;29;20512;-77
2024/01/15 06:48:33;;;;;;;20.58;6.55;;;;;;;-4.79;100.00;100522.69;10215019;29;20062;-77
2024/01/15 06:53:33;;;;;;;31.75;6.53;;;;;;;-4.97;100.00;100526.91;10214988;29;20047;-77
2024/01/15 06:58:34;;;;;;;23.67;7.47;;;;;;;-5.08;100.00;100522.19;10214843;29;20066;-76
2024/01/15 07:03:35;;;;;;;14.23;6.90;;;;;;;-4.71;100.00;100522.34;10215411;29;20056;-77
2024/01/15 07:08:35;;;;;;;61.83;8.70;;;;;;;-4.41;100.00;100531.38;10214975;29;20032;-77
2024/01/15 07:13:37;;;;;;;12.38;7.05;;;;;;;-4.52;100.00;100506.81;10214345;29;20050;-79
2024/01/15 07:18:38;;;;;;;14.50;7.32;;;;;;;-4.03;100.00;100541.78;10214659;29;20130;-78
2024/01/15 07:23:38;;;;;;;18.13;7.55;;;;;;;-4.11;100.00;100514.50;10214674;29;20065;-79
2024/01/15 07:28:40;;;;;;;14.30;7.50;;;;;;;-3.96;100.00;100527.59;10214126;29;20044;-78
2024/01/15 07:33:40;;;;;;;19.02;7.13;;;;;;;-3.79;100.00;100562.34;10213281;29;20090;-76
2024/01/15 07:38:41;;;;;;;13.00;7.53;;;;;;;-4.09;99.50;100489.34;10212647;29;20066;-77
2024/01/15 07:43:42;;;;;;;12.27;6.97;;;;;;;-3.85;98.87;100550.47;10214022;29;20059;-77
2024/01/15 07:48:43;;;;;;;11.70;7.15;;;;;;;-4.04;98.49;100506.34;10213618;29;20051;-78
2024/01/15 07:53:44;;;;;;;12.15;7.00;;;;;;;-3.62;98.21;100582.28;10212793;29;20048;-78
2024/01/15 07:58:44;;;;;;;12.40;5.55;;;;;;;-3.67;97.35;100575.56;10213161;29;20416;-78
2024/01/15 08:03:45;;;;;;;18.00;6.38;;;;;;;-4.00;97.99;100494.09;10213025;29;20095;-78
2024/01/15 08:08:46;;;;;;;11.27;6.35;;;;;;;-3.47;97.54;100547.81;10213730;29;20555;-79
2024/01/15 08:13:47;;;;;;;13.60;6.28;;;;;;;-3.28;97.11;100543.41;10212713;29;20138;-79
2024/01/15 08:18:48;;;;;;;10.00;5.70;;;;;;;-3.35;96.99;100538.59;10212498;29;20547;-79
2024/01/15 08:23:48;;;;;;;15.48;6.10;;;;;;;-3.82;96.37;100472.47;10212934;29;20515;-77
2024/01/15 08:28:49;;;;;;;10.15;6.35;;;;;;;-3.61;95.99;100477.53;10211905;29;20047;-77
2024/01/15 08:33:50;;;;;;;13.95;6.32;;;;;;;-3.35;96.34;100482.31;10211586;29;20043;-79
2024/01/15 08:38:51;;;;;;;12.60;6.78;;;;;;;-3.49;95.24;100441.41;10212097;29;20043;-78
2024/01/15 08:43:52;;;;;;;12.55;6.57;;;;;;;-3.04;95.24;100498.94;10212143;29;20488;-77
2024/01/15 08:48:53;;;;;;;12.15;7.03;;;;;;;-2.89;94.61;100489.53;10212722;29;20047;-78
2024/01/15 08:53:55;;;;;;;15.88;6.82;;;;;;;-3.12;94.10;100443.91;10219955;29;20043;-78
2024/01/15 08:58:56;;;;;;;11.88;7.10;;;;;;;-3.02;93.59;100476.28;10219187;29;20050;-77
2024/01/15 09:03:57;;;;;;;15.23;5.88;;;;;;;-2.93;92.89;100473.25;10220187;29;20044;-77
2024/01/15 09:08:57;;;;;;;11.90;7.50;;;;;;;-2.76;92.69;100474.97;10219544;29;20044;-76
2024/01/15 09:13:58;;;;;;;12.52;7.35;;;;;;;-2.74;92.36;100493.94;10219583;29;20058;-78
2024/01/15 09:18:59;;;;;;;11.60;7.15;;;;;;;-2.93;92.97;100470.66;10219072;29;20035;-77
2024/01/15 09:24:00;;;;;;;19.05;8.00;;;;;;;-2.91;92.29;100467.97;10219397;29;20480;-76
2024/01/15 09:29:01;;;;;;;12.60;8.30;;;;;;;-2.80;92.76;100424.91;10218043;29;20120;-76
2024/01/15 09:34:02;;;;;;;13.27;7.88;;;;;;;-2.50;91.72;100438.97;10218357;29;20099;-76
2024/01/15 09:39:02;;;;;;;15.30;8.18;;;;;;;-2.49;91.18;100458.84;10218377;29;20511;-76
2024/01/15 09:44:04;;;;;;;13.52;8.38;;;;;;;-2.68;90.87;100466.78;10217964;29;20159;-76
2024/01/15 09:49:05;;;;;;;13.45;7.82;;;;;;;-2.71;91.93;100474.75;10217517;29;20043;-76
2024/01/15 09:54:06;;;;;;;12.05;7.53;;;;;;;-2.60;92.19;100480.22;10218255;29;20071;-76
2024/01/15 09:59:07;;;;;;;13.55;8.77;;;;;;;-2.39;91.64;100475.66;10217644;29;20031;-76
2024/01/15 10:04:08;;;;;;;12.98;8.35;;;;;;;-2.08;91.36;100483.47;10216074;29;20058;-76
2024/01/15 10:09:09;;;;;;;14.18;8.95;;;;;;;-1.95;90.46;100485.38;10216734;29;20046;-76
2024/01/15 10:14:13;;;;;;;16.23;9.18;;;;;;;-2.38;89.33;100433.09;10217400;29;20043;-76
2024/01/15 10:19:14;;;;;;;16.05;8.80;;;;;;;-2.56;90.10;100440.13;10217253;29;20131;-75
2024/01/15 10:24:14;;;;;;;18.20;9.32;;;;;;;-2.50;91.08;100473.59;10216581;29;20043;-75
2024/01/15 10:29:15;;;;;;;13.93;9.73;;;;;;;-2.73;91.20;100414.16;10216865;29;20044;-75
2024/01/15 10:34:17;;;;;;;17.10;10.18;;;;;;;-2.52;90.92;100460.66;10216250;29;20040;-75
2024/01/15 10:39:18;;;;;;;17.15;9.48;;;;;;;-2.50;90.51;100488.38;10216150;29;20055;-75
2024/01/15 10:44:19;;;;;;;16.25;10.10;;;;;;;-2.55;90.48;100486.00;10216096;29;20504;-75
2024/01/15 10:49:20;;;;;;;15.38;9.20;;;;;;;-2.65;91.02;100469.22;10215225;29;20505;-75
2024/01/15 10:54:23;;;;;;;14.95;8.77;;;;;;;-2.95;90.42;100454.28;10215608;29;20600;-76
2024/01/15 10:59:24;;;;;;;18.40;9.77;;;;;;;-3.10;90.35;100442.09;10215075;29;20182;-76
2024/01/15 11:04:28;;;;;;;17.75;9.18;;;;;;;-2.99;90.46;100487.41;10215140;29;20412;-76
2024/01/15 11:09:29;;;;;;;15.63;9.32;;;;;;;-3.32;90.72;100496.88;10214971;29;20043;-76
2024/01/15 11:14:57;;;;;;;13.20;8.13;;;;;;;-3.44;91.73;100521.69;10213730;29;20043;-76
2024/01/15 11:19:58;;;;;;;15.32;9.27;;;;;;;-3.40;92.06;100510.25;10214452;29;20054;-76
2024/01/15 11:25:13;;;;;;;17.00;9.43;;;;;;;-3.44;92.02;100524.28;10214315;29;20048;-76
2024/01/15 11:30:14;;;;;;;16.77;8.95;;;;;;;-3.34;91.85;100515.16;10214271;29;20040;-76
2024/01/15 11:35:15;;;;;;;13.38;8.40;;;;;;;-3.43;91.95;100505.22;10214586;29;20044;-76
2024/01/15 11:40:18;;;;;;;16.80;9.02;;;;;;;-3.52;92.85;100522.06;10213330;29;20044;-76
2024/01/15 11:45:20;;;;;;;18.58;9.23;;;;;;;-3.58;92.76;100526.72;10214181;29;20059;-76
2024/01/15 11:50:22;;;;;;;16.10;8.80;;;;;;;-3.67;92.45;100515.84;10212955;29;20131;-76
2024/01/15 11:55:36;;;;;;;15.23;9.07;;;;;;;-3.58;93.71;100526.72;10213421;29;20053;-77
2024/01/15 12:00:45;;;;;;;16.08;9.00;;;;;;;-3.83;93.42;100506.25;10213083;29;20047;-77
2024/01/15 12:05:45;;;;;;;14.57;8.98;;;;;;;-3.85;93.39;100545.28;10212623;29;20039;-76
2024/01/15 12:10:46;;;;;;;17.58;10.10;;;;;;;-3.88;94.13;100532.44;10213189;29;20040;-77
2024/01/15 12:15:48;;;;;;;18.45;9.73;;;;;;;-3.97;94.39;100532.88;10212604;29;20128;-78
2024/01/15 12:20:49;;;;;;;17.35;10.07;;;;;;;-4.01;94.20;100515.75;10211744;29;20043;-75
2024/01/15 12:25:50;;;;;;;15.07;9.02;;;;;;;-4.18;93.96;100475.03;10234230;28;20487;-76
2024/01/15 12:30:51;;;;;;;15.85;9.00;;;;;;;-4.11;93.37;100528.31;10252378;29;20130;-76
2024/01/15 12:35:54;;;;;;;14.18;8.88;;;;;;;-4.17;92.13;100529.44;10251943;28;20130;-78
2024/01/15 12:40:55;;;;;;;14.70;8.27;;;;;;;-4.20;92.85;100558.09;10249762;28;20035;-76
2024/01/15 12:46:15;;;;;;;15.48;8.20;;;;;;;-4.24;91.97;100540.16;10251105;28;20039;-78
2024/01/15 12:51:15;;;;;;;27.33;8.45;;;;;;;-4.35;92.09;100569.16;10250484;29;20058;-78
2024/01/15 12:56:16;;;;;;;13.82;7.65;;;;;;;-4.42;91.92;100581.56;10248433;28;20381;-78
2024/01/15 13:01:17;;;;;;;13.98;7.40;;;;;;;-4.59;91.69;100558.94;10246372;29;20058;-79
2024/01/15 13:06:18;;;;;;;12.95;7.47;;;;;;;-4.67;91.18;100555.00;10246260;28;20078;-78
2024/01/15 13:11:37;;;;;;;15.57;8.35;;;;;;;-4.67;90.98;100571.38;10247524;29;20146;-77
2024/01/15 13:16:38;;;;;;;15.82;8.55;;;;;;;-4.75;91.87;100583.03;10248659;29;20502;-79
2024/01/15 13:22:00;;;;;;;14.18;8.98;;;;;;;-5.18;91.39;100520.88;10248419;29;20407;-75
2024/01/15 13:27:00;;;;;;;23.25;9.48;;;;;;;-5.33;91.83;100529.25;10248818;29;20459;-76
2024/01/15 13:32:01;;;;;;;15.30;9.18;;;;;;;-5.39;91.42;100576.13;10225935;29;20046;-77
2024/01/15 13:37:02;;;;;;;19.75;10.63;;;;;;;-5.30;91.94;100586.94;10213183;29;20492;-77
2024/01/15 13:42:03;;;;;;;19.00;10.48;;;;;;;-5.51;91.92;100582.63;10237909;29;20065;-75
2024/01/15 13:47:06;;;;;;;18.27;10.35;;;;;;;-5.75;92.46;100550.78;10258028;29;20039;-78
2024/01/15 13:52:07;;;;;;;17.13;10.27;;;;;;;-5.50;92.27;100628.34;10257057;28;20507;-73
2024/01/15 13:57:07;;;;;;;19.13;11.60;;;;;;;-5.57;92.38;100613.91;10253141;28;20134;-73
2024/01/15 14:02:09;;;;;;;18.02;9.98;;;;;;;-5.78;92.42;100631.09;10244580;28;20107;-74
2024/01/15 14:12:29;;;;;;;19.08;10.35;;;;;;;-6.18;92.76;100609.34;10231848;29;20047;-75
2024/01/15 14:17:30;;;;;;;19.23;10.80;;;;;;;-6.21;93.75;100614.63;10246423;29;20039;-75
2024/01/15 14:22:31;;;;;;;17.27;10.40;;;;;;;-6.28;93.63;100616.56;10233423;29;20079;-75
2024/01/15 14:27:32;;;;;;;17.67;10.10;;;;;;;-6.56;93.93;100611.50;10241845;28;20035;-75
2024/01/15 14:32:33;;;;;;;20.30;10.20;;;;;;;-6.31;94.57;100649.44;10246406;28;20043;-76
2024/01/15 14:37:34;;;;;;;22.13;10.80;;;;;;;-6.66;94.48;100616.16;10233949;29;20042;-73
2024/01/15 14:42:36;;;;;;;33.60;17.23;;;;;;;-6.47;94.49;100672.38;10234889;28;20073;-75
2024/01/15 14:47:41;;;;;;;28.75;15.50;;;;;;;-7.09;94.52;100579.75;10242433;29;20484;-75
2024/01/15 14:52:42;;;;;;;39.42;19.23;;;;;;;-6.88;93.88;100661.66;10246264;29;20628;-75
2024/01/15 14:57:42;;;;;;;37.08;19.95;;;;;;;-6.83;94.79;100664.97;10254235;29;20175;-75
2024/01/15 15:02:43;;;;;;;34.45;16.08;;;;;;;-6.91;94.31;100678.13;10254843;28;20100;-75
2024/01/15 15:07:44;;;;;;;27.60;13.65;;;;;;;-6.96;95.02;100669.69;10254408;28;20046;-76
2024/01/15 15:12:45;;;;;;;29.25;15.45;;;;;;;-7.20;94.33;100660.97;10253886;28;20043;-75
2024/01/15 15:17:45;;;;;;;21.63;10.55;;;;;;;-7.72;93.99;100594.63;10253516;28;20515;-75
2024/01/15 15:22:46;;;;;;;19.55;9.60;;;;;;;-7.44;94.17;100641.09;10229266;29;20161;-75
2024/01/15 15:27:48;;;;;;;19.05;9.70;;;;;;;-7.60;94.49;100623.50;10239845;29;20133;-74
2024/01/15 15:38:08;;;;;;;17.13;9.27;;;;;;;-7.69;95.13;100605.69;10253456;28;20507;-75
2024/01/15 15:43:08;;;;;;;14.60;8.68;;;;;;;-7.71;95.73;100580.84;10253087;28;20063;-75
2024/01/15 15:48:09;;;;;;;16.13;7.80;;;;;;;-7.62;95.44;100599.47;10252633;29;20050;-75
2024/01/15 15:53:11;;;;;;;14.27;7.47;;;;;;;-7.75;94.92;100595.56;10252414;29;20039;-74
2024/01/15 15:58:12;;;;;;;13.18;7.57;;;;;;;-7.71;94.86;100601.50;10251518;28;20407;-74
2024/01/15 16:03:12;;;;;;;13.27;6.40;;;;;;;-7.68;95.40;100591.06;10252224;28;20053;-75
2024/01/15 16:08:13;;;;;;;15.40;7.63;;;;;;;-7.98;95.56;100521.47;10252057;29;20179;-75
2024/01/15 16:13:15;;;;;;;11.40;6.70;;;;;;;-7.69;95.75;100572.16;10251974;29;20094;-74
2024/01/15 16:18:16;;;;;;;12.35;6.63;;;;;;;-7.63;95.69;100571.13;10253143;29;20404;-75
2024/01/15 16:23:16;;;;;;;12.50;7.10;;;;;;;-7.69;95.65;100517.16;10251862;28;20179;-74
2024/01/15 16:28:17;;;;;;;11.75;6.65;;;;;;;-7.28;95.56;100564.84;10251156;29;20179;-75
2024/01/15 16:33:18;;;;;;;10.90;6.70;;;;;;;-7.26;95.16;100563.06;10251834;28;20047;-75
2024/01/15 16:38:19;;;;;;;14.52;7.82;;;;;;;-7.40;94.81;100560.94;10251686;29;20086;-76
2024/01/15 16:43:21;;;;;;;12.75;7.13;;;;;;;-7.39;94.42;100560.06;10251781;28;20059;-75
2024/01/15 16:48:22;;;;;;;11.32;6.65;;;;;;;-7.27;94.38;100565.69;10250964;28;20416;-75
2024/01/15 16:53:23;;;;;;;11.80;6.88;;;;;;;-7.36;94.22;100567.69;10251984;28;20088;-74
2024/01/15 16:58:24;;;;;;;12.48;6.43;;;;;;;-7.37;93.70;100555.66;10250689;29;20039;-73
2024/01/15 17:03:24;;;;;;;13.43;6.80;;;;;;;-7.49;93.45;100566.38;10251811;29;20051;-74
2024/01/15 17:08:25;;;;;;;12.30;6.70;;;;;;;-7.93;93.19;100518.75;10246482;29;20090;-74
2024/01/15 17:13:27;;;;;;;14.25;6.63;;;;;;;-7.76;93.65;100559.50;10256373;28;20056;-73
2024/01/15 17:18:28;;;;;;;12.30;7.10;;;;;;;-7.97;93.58;100484.50;10258359;29;20479;-74
2024/01/15 17:23:28;;;;;;;13.77;8.00;;;;;;;-7.82;93.33;100511.53;10259150;29;20043;-74
2024/01/15 17:28:29;;;;;;;14.13;8.18;;;;;;;-7.68;92.92;100568.69;10257919;29;20400;-75
2024/01/15 17:38:49;;;;;;;49.83;25.10;;;;;;;-8.15;92.17;100585.56;10257520;28;20044;-75
2024/01/15 17:43:50;;;;;;;34.60;18.02;;;;;;;-8.26;92.51;100578.97;10255095;29;20067;-75
2024/01/15 17:48:51;;;;;;;42.80;21.25;;;;;;;-8.43;92.42;100563.19;10258118;28;20047;-76
2024/01/15 17:53:51;;;;;;;137.85;59.70;;;;;;;-8.47;92.15;100583.91;10257487;28;20051;-75
2024/01/15 17:58:52;;;;;;;73.22;33.88;;;;;;;-8.58;92.74;100566.19;10256635;28;20039;-76
2024/01/15 18:03:53;;;;;;;62.55;31.50;;;;;;;-8.61;93.39;100561.97;10256521;28;20114;-75
2024/01/15 18:08:54;;;;;;;47.45;23.85;;;;;;;-8.65;92.72;100559.50;10257096;28;20054;-75
2024/01/15 18:13:55;;;;;;;45.55;22.50;;;;;;;-8.65;92.49;100564.66;10255566;28;20098;-76
2024/01/15 18:18:56;;;;;;;33.58;15.32;;;;;;;-8.65;92.64;100567.22;10255748;28;20036;-76
2024/01/15 18:23:57;;;;;;;27.45;13.70;;;;;;;-8.80;91.72;100556.44;10255696;28;20507;-76
2024/01/15 18:28:57;;;;;;;25.52;12.98;;;;;;;-9.15;91.58;100511.06;10255497;28;20043;-75
2024/01/15 18:33:58;;;;;;;21.10;12.65;;;;;;;-8.99;91.86;100550.94;10255841;28;20047;-76
2024/01/15 18:39:05;;;;;;;23.80;11.50;;;;;;;-9.09;91.60;100553.78;10255480;28;20437;-77
2024/01/15 18:44:06;;;;;;;21.23;10.40;;;;;;;-9.28;91.31;100545.69;10255071;28;20159;-76
2024/01/15 18:49:07;;;;;;;21.45;10.25;;;;;;;-9.18;92.11;100560.03;10249788;29;20239;-77
2024/01/15 18:54:08;;;;;;;20.23;9.68;;;;;;;-9.09;91.94;100553.78;10253082;28;20055;-76
2024/01/15 18:59:09;;;;;;;24.88;9.73;;;;;;;-9.05;91.65;100542.53;10254560;29;20053;-78
2024/01/15 19:04:11;;;;;;;18.83;8.77;;;;;;;-9.28;91.69;100496.81;10254049;29;20045;-78
2024/01/15 19:09:12;;;;;;;19.08;9.40;;;;;;;-9.25;91.18;100517.31;10254871;29;20035;-78
2024/01/15 19:19:36;;;;;;;16.73;8.10;;;;;;;-9.24;90.74;100507.00;10254420;28;20035;-78
2024/01/15 19:24:38;;;;;;;18.90;8.32;;;;;;;-9.09;90.65;100533.19;10250436;28;20047;-77
2024/01/15 19:29:39;;;;;;;19.60;8.57;;;;;;;-9.08;90.76;100516.88;10253855;29;20067;-77
2024/01/15 19:34:40;;;;;;;18.10;8.52;;;;;;;-9.09;91.18;100516.03;10252790;28;20066;-77
2024/01/15 19:39:41;;;;;;;20.50;9.88;;;;;;;-9.17;90.59;100510.25;10253623;29;20547;-77
2024/01/15 19:44:42;;;;;;;21.55;10.07;;;;;;;-9.06;90.15;100509.94;10253623;29;20150;-76
2024/01/15 19:49:45;;;;;;;22.33;8.95;;;;;;;-9.38;90.13;100469.63;10253141;28;20512;-77
2024/01/15 19:54:46;;;;;;;19.00;9.25;;;;;;;-9.28;89.79;100502.78;10250443;28;20393;-77
2024/01/15 19:59:47;;;;;;;18.92;8.25;;;;;;;-9.20;90.25;100518.03;10252538;29;20046;-75
2024/01/15 20:04:48;;;;;;;19.00;9.25;;;;;;;-9.58;89.46;100482.97;10252125;29;20046;-77
2024/01/15 20:09:49;;;;;;;22.95;11.55;;;;;;;-9.33;89.72;100511.50;10253412;29;20102;-77
2024/01/15 20:14:50;;;;;;;20.35;10.60;;;;;;;-9.19;89.99;100517.16;10251737;28;20047;-77
2024/01/15 20:25:10;;;;;;;21.67;11.27;;;;;;;-9.76;89.14;100469.69;10252098;28;20054;-76
2024/01/15 20:30:11;;;;;;;21.88;11.10;;;;;;;-9.59;89.46;100512.16;10251938;28;20047;-76
2024/01/15 20:35:12;;;;;;;17.58;9.05;;;;;;;-9.70;89.50;100499.53;10251648;28;20089;-75
2024/01/15 20:40:13;;;;;;;19.50;8.90;;;;;;;-9.47;90.02;100509.28;10252417;28;20043;-75
2024/01/15 20:45:14;;;;;;;19.58;8.35;;;;;;;-9.51;89.72;100517.94;10254147;28;20062;-76
2024/01/15 20:50:15;;;;;;;19.42;9.10;;;;;;;-9.46;89.90;100505.81;10264300;28;20182;-74
2024/01/15 20:55:16;;;;;;;24.05;8.95;;;;;;;-9.89;89.05;100451.16;10264274;28;20044;-74
2024/01/15 21:00:17;;;;;;;18.90;9.07;;;;;;;-9.75;88.39;100491.09;10265806;28;20042;-74
2024/01/15 21:05:18;;;;;;;25.08;11.55;;;;;;;-9.76;89.53;100469.69;10263903;28;20047;-74
2024/01/15 21:10:19;;;;;;;25.35;11.55;;;;;;;-9.42;89.68;100474.03;10263964;28;20043;-75
2024/01/15 21:15:20;;;;;;;24.88;11.85;;;;;;;-9.70;89.43;100437.84;10264452;28;20062;-74
2024/01/15 21:20:20;;;;;;;25.77;13.18;;;;;;;-9.57;90.02;100449.53;10263102;28;20035;-74
2024/01/15 21:25:21;;;;;;;32.28;14.68;;;;;;;-9.33;89.96;100486.66;10263485;28;20074;-74
2024/01/15 21:30:22;;;;;;;28.05;13.07;;;;;;;-9.55;90.01;100429.75;10263436;28;20045;-76
2024/01/15 21:35:23;;;;;;;38.30;15.57;;;;;;;-9.18;89.74;100472.53;10263900;28;20046;-74
2024/01/15 21:40:24;;;;;;;37.22;15.35;;;;;;;-9.05;89.57;100471.31;10263940;28;20031;-74
2024/01/15 21:45:24;;;;;;;43.53;17.00;;;;;;;-9.32;89.42;100418.88;10264241;28;20063;-74
2024/01/15 21:50:25;;;;;;;38.53;15.10;;;;;;;-8.99;89.75;100470.31;10264227;28;20051;-75
2024/01/15 21:55:26;;;;;;;50.95;17.80;;;;;;;-9.22;89.74;100435.72;10263243;28;20050;-75
2024/01/15 22:00:27;;;;;;;44.97;17.70;;;;;;;-9.71;89.80;100348.75;10256418;28;20118;-73
2024/01/15 22:05:28;;;;;;;41.72;15.52;;;;;;;-8.66;90.06;100476.25;10255912;29;20130;-75
2024/01/15 22:10:29;;;;;;;31.80;12.50;;;;;;;-8.34;90.64;100457.25;10256251;28;20087;-75
2024/01/15 22:15:29;;;;;;;23.38;10.95;;;;;;;-8.11;91.16;100443.66;10256359;28;20652;-74
2024/01/15 22:20:30;;;;;;;24.35;10.18;;;;;;;-8.04;90.65;100429.72;10255943;28;20520;-75
2024/01/15 22:25:34;;;;;;;14.82;8.20;;;;;;;-8.11;89.74;100450.56;10256879;28;20043;-74
2024/01/15 22:30:35;;;;;;;19.77;10.02;;;;;;;-8.10;90.39;100413.59;10256366;28;20050;-75
2024/01/15 22:35:36;;;;;;;17.20;9.25;;;;;;;-7.76;91.19;100422.81;10255978;28;20399;-75
2024/01/15 22:40:37;;;;;;;16.77;9.38;;;;;;;-7.54;90.96;100436.66;10255895;29;20097;-74
2024/01/15 22:45:37;;;;;;;15.13;7.95;;;;;;;-7.36;90.89;100453.28;10257355;29;20081;-74
2024/01/15 22:50:38;;;;;;;19.25;9.38;;;;;;;-7.87;90.21;100398.19;10255589;29;20138;-75
2024/01/15 22:55:39;;;;;;;15.43;8.43;;;;;;;-7.90;90.19;100425.84;10255239;29;20039;-74
2024/01/15 23:00:43;;;;;;;19.48;11.00;;;;;;;-8.23;90.49;100413.13;10254635;29;20084;-74
2024/01/15 23:05:44;;;;;;;19.05;10.30;;;;;;;-7.99;91.48;100470.78;10255048;28;20039;-73